Aérodrome :
LOGIN :

S'inscrire | Disclaimer

   EN    FR    IT 

 










Légende :    VFR   VFR Marginal   IFR   IFR Intensif   IFR Très Intensif
Visi : 
Plafond : 
>= 8 km
>= 3000ft
5 à 8 km
1000 à 3000 ft
1500m à 5 km
500 à 1000 ft
800 à 1500m
200 à 500 ft
< 800m
< 200 ft
Symboles :   Orages  Brouillard  Fortes neiges  Fortes précipitations  Vent > 20 kt
SIGMETs :   Divers  Orages  Givrage  Turbulence  Onde Orograph.  Cendres Volcan.






- Altitude de l'aérodrome : 187 ft


ETNW - Wunstorf AB

DERNIER METAR :
  • 061020Z AUTO 23009KT 8000 // ////// 14/05 Q0999 ///

METARs EXPIRÉS :
  • 060920Z AUTO 23012G26KT 9999 // ////// 14/05 Q0999 ///
  • 060855Z 25012KT 9999 SCT033 14/05 Q0999 BLU+FCST CANCEL
  • 060820Z 25014KT 9999 SCT030 13/05 Q0998 BLU+BLU BECMG BLU+

TAF TAF ETNW
Valide du 06 à 05h jusqu'au 07 à 05h UTC


060415Z 0605/0705 23010KT 9999 NSW SCT020 BKN050
BECMG 0607/0609 23015G25KT 9999 NSW SCT020 SCT050
PROB30 0609/0615 25020G30KT 3500 SHRA BKN010 BKN030CB
BECMG 0617/0619 19010KT 9999 NSW SCT070 BY ETGL



MET'MAP, la Météo Aéronautique d'un coup d'oeil ! - Copyright ORBIFLY Décembre 2007 - Disclaimer

ORBIFLY MET'MAP TEAM :

Programmation & Développement : Alexandra Zaïnal
Sur une idée originale de : Baudouin d'Aumeries
Assistance à la programmation : Marc-Olivier Méhu
Soutien technique & logistique : Manuel Goepfert

Contact : metmap@orbifly.com




SOURCES & CREDITS :

   NOAA